createdAt,value
2023-03-08T00:01:33.825Z,1.67
2023-03-08T00:11:38.837Z,2.20
2023-03-08T00:21:44.212Z,2.13
2023-03-08T00:31:46.394Z,2.70
2023-03-08T00:41:48.881Z,2.37
2023-03-08T00:51:56.249Z,3.10
2023-03-08T01:01:58.270Z,2.50
2023-03-08T01:12:00.980Z,2.77
2023-03-08T01:22:05.502Z,2.27
2023-03-08T01:32:10.699Z,2.27
2023-03-08T01:42:15.573Z,2.37
2023-03-08T01:52:48.265Z,2.27
2023-03-08T02:02:57.790Z,2.00
2023-03-08T02:13:00.702Z,3.10
2023-03-08T02:23:17.667Z,2.23
2023-03-08T02:33:24.055Z,3.00
2023-03-08T02:43:26.965Z,1.97
2023-03-08T02:53:33.698Z,2.10
2023-03-08T03:03:36.841Z,2.00
2023-03-08T03:13:46.688Z,2.20
2023-03-08T03:23:55.387Z,1.70
2023-03-08T03:34:05.221Z,3.20
2023-03-08T03:44:07.840Z,3.60
2023-03-08T03:54:10.840Z,3.90
2023-03-08T04:04:19.490Z,3.67
2023-03-08T04:14:22.795Z,4.47
2023-03-08T04:24:26.931Z,5.73
2023-03-08T04:34:33.378Z,6.67
2023-03-08T04:44:37.522Z,5.83
2023-03-08T04:54:52.667Z,5.53
2023-03-08T05:05:01.209Z,6.63
2023-03-08T05:15:05.678Z,8.27
2023-03-08T05:25:09.200Z,8.87
2023-03-08T05:35:11.338Z,7.70
2023-03-08T05:45:19.069Z,8.10
2023-03-08T05:55:22.465Z,8.53
2023-03-08T06:05:26.965Z,8.83
2023-03-08T06:15:43.569Z,9.07
2023-03-08T06:25:49.328Z,8.50
2023-03-08T06:36:01.724Z,6.50
2023-03-08T06:46:07.537Z,5.97
2023-03-08T06:56:15.999Z,5.33
2023-03-08T07:06:24.385Z,5.10
2023-03-08T07:16:34.633Z,4.57
2023-03-08T07:26:40.175Z,5.07
2023-03-08T07:36:55.047Z,4.73
2023-03-08T07:46:59.534Z,4.80
2023-03-08T07:57:06.712Z,4.37
2023-03-08T08:07:18.821Z,3.60
2023-03-08T08:17:21.597Z,4.87
2023-03-08T08:27:29.506Z,5.30
2023-03-08T08:37:33.048Z,3.67
2023-03-08T08:58:28.263Z,3.50
2023-03-08T09:08:35.737Z,3.30
2023-03-08T09:18:45.559Z,3.40
2023-03-08T09:28:56.648Z,3.23
2023-03-08T09:39:01.094Z,3.60
2023-03-08T09:49:13.941Z,2.80
2023-03-08T09:59:45.524Z,3.33
2023-03-08T10:10:37.745Z,3.50
2023-03-08T10:20:46.046Z,2.80
2023-03-08T10:30:58.818Z,3.53
2023-03-08T10:41:08.660Z,3.97
2023-03-08T10:51:28.566Z,3.53
2023-03-08T11:01:50.102Z,3.07
2023-03-08T11:11:58.515Z,3.50
2023-03-08T11:22:14.616Z,3.47
2023-03-08T11:32:32.888Z,2.67
2023-03-08T11:42:43.371Z,3.03
2023-03-08T11:53:13.753Z,3.00
2023-03-08T12:03:36.882Z,2.97
2023-03-08T12:13:49.527Z,2.40
2023-03-08T12:24:34.808Z,2.93
2023-03-08T12:34:46.907Z,3.10
2023-03-08T12:44:54.878Z,3.00
2023-03-08T12:55:09.721Z,3.20
2023-03-08T13:05:32.367Z,3.10
2023-03-08T13:15:35.805Z,3.00
2023-03-08T13:26:08.718Z,3.50
2023-03-08T13:36:21.753Z,3.67
2023-03-08T13:46:28.435Z,4.27
2023-03-08T13:56:37.598Z,3.63
2023-03-08T14:06:44.602Z,3.47
2023-03-08T14:16:55.003Z,4.10
2023-03-08T14:27:01.302Z,3.60
2023-03-08T14:37:31.579Z,4.37
2023-03-08T14:47:49.193Z,4.33
2023-03-08T14:58:12.837Z,4.47
2023-03-08T15:08:16.494Z,5.13
2023-03-08T15:18:23.851Z,6.00
2023-03-08T15:28:26.788Z,4.87
2023-03-08T15:38:36.140Z,4.80
2023-03-08T15:48:45.901Z,4.47
2023-03-08T15:58:47.991Z,4.73
2023-03-08T16:08:56.727Z,5.33
2023-03-08T16:19:03.236Z,3.93
2023-03-08T16:29:11.418Z,4.93
2023-03-08T16:39:14.646Z,5.07
2023-03-08T16:49:20.175Z,5.30
2023-03-08T16:59:22.273Z,5.87
2023-03-08T17:09:24.361Z,6.00
2023-03-08T17:19:27.080Z,4.80
2023-03-08T17:29:31.824Z,5.43
2023-03-08T17:39:45.259Z,5.57
2023-03-08T17:49:47.999Z,5.90
2023-03-08T17:59:53.556Z,4.87
2023-03-08T18:09:58.762Z,6.43
2023-03-08T18:20:06.777Z,5.37
2023-03-08T18:30:12.056Z,5.77
2023-03-08T18:40:17.071Z,6.60
2023-03-08T18:50:23.842Z,6.30
2023-03-08T19:00:26.225Z,6.27
2023-03-08T19:10:33.412Z,8.13
2023-03-08T19:20:41.208Z,9.03
2023-03-08T19:30:44.006Z,7.50
2023-03-08T19:40:51.233Z,8.60
2023-03-08T19:51:01.920Z,7.23
2023-03-08T20:01:11.478Z,7.97
2023-03-08T20:11:18.410Z,7.53
2023-03-08T20:21:20.673Z,6.60
2023-03-08T20:31:24.049Z,7.03
2023-03-08T20:41:34.659Z,7.07
2023-03-08T20:51:38.113Z,7.70
2023-03-08T21:01:42.469Z,8.10
2023-03-08T21:11:47.478Z,8.43
2023-03-08T21:21:52.726Z,5.77
2023-03-08T21:31:55.664Z,6.23
2023-03-08T21:42:02.556Z,10.50
2023-03-08T21:52:05.365Z,12.27
2023-03-08T22:02:10.443Z,8.73
2023-03-08T22:12:21.822Z,12.20
2023-03-08T22:22:32.010Z,8.07
2023-03-08T22:32:40.915Z,6.87
2023-03-08T22:42:47.577Z,6.40
2023-03-08T22:52:54.414Z,6.97
2023-03-08T23:02:57.876Z,10.97
2023-03-08T23:13:04.784Z,10.13
2023-03-08T23:23:08.421Z,9.47
2023-03-08T23:33:14.357Z,8.67
2023-03-08T23:43:22.197Z,8.73
2023-03-08T23:53:29.641Z,7.87
